Time;durP1;ratioP1;P1;durP2;ratioP2;P2;SDS_P1;SDS_P2;PMS_P1;PMS_P2;Temp;Humidity;BMP_temperature;BMP_pressure;BME280_temperature;BME280_humidity;BME280_pressure;Samples;Min_cycle;Max_cycle;Signal;HPM_P1;HPM_P2
2023/07/23 00:00:32;;;;;;;5.10;2.53;;;;;;;17.21;100.00;96538.75;5042750;28;20199;-65
2023/07/23 00:02:58;;;;;;;2.72;2.58;;;;;;;17.22;100.00;96539.56;5042317;28;20219;-65
2023/07/23 00:05:25;;;;;;;3.80;2.45;;;;;;;17.21;100.00;96540.59;5042251;28;20533;-65
2023/07/23 00:07:52;;;;;;;2.67;2.45;;;;;;;17.18;100.00;96532.97;5042695;28;20223;-65
2023/07/23 00:10:18;;;;;;;4.75;3.00;;;;;;;17.18;100.00;96525.75;5042179;28;20204;-64
2023/07/23 00:12:46;;;;;;;3.30;2.60;;;;;;;17.20;100.00;96528.25;5042249;28;20196;-66
2023/07/23 00:15:13;;;;;;;2.90;2.67;;;;;;;17.21;100.00;96516.56;5042513;28;20204;-64
2023/07/23 00:17:40;;;;;;;5.18;3.08;;;;;;;17.17;100.00;96524.13;5044617;28;20298;-66
2023/07/23 00:20:08;;;;;;;3.55;2.70;;;;;;;17.14;100.00;96520.97;5046029;28;20246;-64
2023/07/23 00:22:35;;;;;;;2.97;2.75;;;;;;;17.12;100.00;96521.16;5049001;28;20222;-65
2023/07/23 00:25:01;;;;;;;3.00;2.80;;;;;;;17.13;100.00;96522.81;5046450;28;20207;-64
2023/07/23 00:27:28;;;;;;;3.15;2.78;;;;;;;17.13;100.00;96528.16;5045037;28;20218;-64
2023/07/23 00:29:56;;;;;;;3.25;3.00;;;;;;;17.17;100.00;96517.94;5043151;28;20195;-63
2023/07/23 00:32:22;;;;;;;3.28;3.08;;;;;;;17.12;100.00;96525.66;5043051;28;20257;-65
2023/07/23 00:34:49;;;;;;;3.60;3.30;;;;;;;17.09;100.00;96521.53;5042631;28;20214;-65
2023/07/23 00:37:15;;;;;;;3.50;3.20;;;;;;;17.07;100.00;96512.06;5043254;28;20212;-65
2023/07/23 00:39:42;;;;;;;3.33;3.00;;;;;;;17.05;100.00;96517.56;5044387;28;20227;-64
2023/07/23 00:42:08;;;;;;;5.20;3.85;;;;;;;17.04;100.00;96518.56;5044071;28;20207;-63
2023/07/23 00:44:35;;;;;;;3.58;3.28;;;;;;;17.06;100.00;96510.38;5043545;28;20208;-63
2023/07/23 00:47:03;;;;;;;4.90;3.65;;;;;;;17.05;100.00;96509.56;5059973;28;20211;-65
2023/07/23 00:49:30;;;;;;;4.95;3.50;;;;;;;17.10;100.00;96511.69;5033724;28;20294;-64
2023/07/23 00:51:57;;;;;;;5.07;3.33;;;;;;;17.04;100.00;96504.41;5034300;28;20212;-62
2023/07/23 00:54:24;;;;;;;3.80;3.50;;;;;;;17.03;100.00;96500.91;5045835;28;20218;-63
2023/07/23 00:56:51;;;;;;;3.50;3.15;;;;;;;17.01;100.00;96504.75;5036559;28;20219;-63
2023/07/23 00:59:18;;;;;;;3.25;3.05;;;;;;;16.99;100.00;96501.47;5042222;28;20224;-64
2023/07/23 01:01:45;;;;;;;3.45;3.15;;;;;;;17.01;100.00;96505.59;5040741;28;20532;-63
2023/07/23 01:04:12;;;;;;;4.35;3.03;;;;;;;16.99;100.00;96494.28;5051938;28;20217;-63
2023/07/23 01:06:42;;;;;;;3.70;3.40;;;;;;;17.00;100.00;96497.78;5035995;28;20215;-63
2023/07/23 01:09:09;;;;;;;4.05;3.60;;;;;;;16.93;100.00;96498.50;5034895;28;20223;-63
2023/07/23 01:11:36;;;;;;;3.70;3.30;;;;;;;16.93;100.00;96497.72;5034654;28;20537;-62
2023/07/23 01:14:03;;;;;;;3.67;3.38;;;;;;;16.90;100.00;96496.22;5046661;28;20607;-62
2023/07/23 01:16:30;;;;;;;3.25;2.97;;;;;;;16.84;100.00;96491.63;5055464;28;20296;-64
2023/07/23 01:18:57;;;;;;;4.72;3.30;;;;;;;16.81;100.00;96492.00;5054621;28;20690;-64
2023/07/23 01:21:27;;;;;;;3.67;3.20;;;;;;;16.78;100.00;96503.06;5053703;28;20260;-62
2023/07/23 01:23:55;;;;;;;4.05;3.65;;;;;;;16.74;100.00;96492.91;5055416;28;20207;-63
2023/07/23 01:26:22;;;;;;;4.95;3.45;;;;;;;16.76;100.00;96497.06;5054580;28;20234;-64
2023/07/23 01:28:48;;;;;;;3.53;3.25;;;;;;;16.76;100.00;96505.06;5054991;28;20655;-62
2023/07/23 01:31:15;;;;;;;3.40;3.10;;;;;;;16.75;100.00;96497.25;5067173;28;20203;-62
2023/07/23 01:33:41;;;;;;;3.70;3.20;;;;;;;16.74;100.00;96496.41;5055200;28;20206;-64
2023/07/23 01:36:08;;;;;;;3.80;3.38;;;;;;;16.74;100.00;96499.09;5054812;28;20207;-63
2023/07/23 01:38:35;;;;;;;4.22;3.35;;;;;;;16.69;100.00;96504.16;5054645;28;20223;-63
2023/07/23 01:41:03;;;;;;;3.40;3.10;;;;;;;16.67;100.00;96489.31;5055821;28;20519;-62
2023/07/23 01:43:29;;;;;;;4.13;3.50;;;;;;;16.63;100.00;96502.22;5053963;28;20206;-63
2023/07/23 01:45:56;;;;;;;3.50;3.20;;;;;;;16.66;100.00;96493.00;5053247;28;20517;-62
2023/07/23 01:48:23;;;;;;;4.03;3.40;;;;;;;16.62;100.00;96491.72;5048914;28;20367;-62
2023/07/23 01:50:50;;;;;;;4.82;3.42;;;;;;;16.62;100.00;96494.38;5045010;28;20342;-62
2023/07/23 01:53:16;;;;;;;4.23;3.30;;;;;;;16.58;100.00;96490.44;5048964;28;20207;-63
2023/07/23 01:55:42;;;;;;;4.22;3.50;;;;;;;16.54;100.00;96487.28;5054123;28;20217;-62
2023/07/23 01:58:10;;;;;;;5.65;3.13;;;;;;;16.52;100.00;96491.97;5053230;28;20230;-62
2023/07/23 02:00:38;;;;;;;4.00;3.60;;;;;;;16.59;100.00;96492.09;5056037;28;20667;-63
2023/07/23 02:03:04;;;;;;;3.60;3.30;;;;;;;16.58;100.00;96493.13;5053380;28;20290;-63
2023/07/23 02:05:31;;;;;;;4.05;3.30;;;;;;;16.58;100.00;96491.25;5048379;28;20215;-62
2023/07/23 02:07:57;;;;;;;3.60;3.20;;;;;;;16.59;100.00;96492.91;5053196;28;20207;-63
2023/07/23 02:10:24;;;;;;;4.10;3.28;;;;;;;16.61;100.00;96493.56;5053529;28;20210;-63
2023/07/23 02:12:50;;;;;;;3.20;2.93;;;;;;;16.54;100.00;96489.94;5050968;28;20539;-63
2023/07/23 02:15:19;;;;;;;4.85;3.35;;;;;;;16.56;100.00;96487.94;5048856;28;20199;-63
2023/07/23 02:17:45;;;;;;;3.28;2.97;;;;;;;16.52;100.00;96491.97;5053216;28;20235;-62
2023/07/23 02:20:12;;;;;;;3.38;3.17;;;;;;;16.56;100.00;96490.63;5056903;28;20585;-62
2023/07/23 02:22:39;;;;;;;3.30;3.10;;;;;;;16.54;100.00;96492.63;5057293;28;20215;-64
2023/07/23 02:25:06;;;;;;;3.30;3.10;;;;;;;16.51;100.00;96482.28;5049781;28;20203;-62
2023/07/23 02:27:35;;;;;;;4.30;2.93;;;;;;;16.47;100.00;96486.34;5058388;28;20302;-64
2023/07/23 02:30:01;;;;;;;3.78;3.47;;;;;;;16.44;100.00;96487.53;5050062;28;20207;-63
2023/07/23 02:32:29;;;;;;;3.17;2.88;;;;;;;16.43;100.00;96490.41;5055995;28;20207;-64
2023/07/23 02:34:56;;;;;;;3.22;2.92;;;;;;;16.40;100.00;96486.22;5059083;28;20214;-64
2023/07/23 02:37:22;;;;;;;4.25;3.00;;;;;;;16.37;100.00;96485.78;5050188;28;20203;-63
2023/07/23 02:39:48;;;;;;;3.85;3.33;;;;;;;16.38;100.00;96498.13;5057300;28;20227;-62
2023/07/23 02:42:15;;;;;;;3.90;3.00;;;;;;;16.32;100.00;96488.19;5052563;28;20222;-63
2023/07/23 02:44:41;;;;;;;3.47;3.10;;;;;;;16.28;100.00;96494.88;5048102;28;20222;-63
2023/07/23 02:47:08;;;;;;;3.40;3.10;;;;;;;16.27;100.00;96496.72;5051937;28;20214;-62
2023/07/23 02:49:35;;;;;;;4.50;3.45;;;;;;;16.27;100.00;96490.56;5037202;28;20235;-62
2023/07/23 02:52:02;;;;;;;4.30;3.37;;;;;;;16.24;100.00;96482.91;5036990;28;20265;-63
2023/07/23 02:54:29;;;;;;;3.47;3.17;;;;;;;16.25;100.00;96496.09;5037167;28;20227;-63
2023/07/23 02:56:55;;;;;;;3.60;3.30;;;;;;;16.21;100.00;96491.28;5050286;28;20226;-63
2023/07/23 02:59:22;;;;;;;3.45;3.13;;;;;;;16.18;100.00;96497.00;5036322;28;20227;-63
2023/07/23 03:01:48;;;;;;;5.00;3.40;;;;;;;16.18;100.00;96481.81;5044814;28;20211;-61
2023/07/23 03:04:14;;;;;;;3.20;2.97;;;;;;;16.16;100.00;96488.31;5037313;28;20216;-62
2023/07/23 03:06:42;;;;;;;6.57;3.40;;;;;;;16.17;100.00;96485.47;5049795;28;20215;-63
2023/07/23 03:09:09;;;;;;;3.50;3.20;;;;;;;16.09;100.00;96479.38;5048585;28;20210;-62
2023/07/23 03:11:35;;;;;;;5.30;3.60;;;;;;;16.13;100.00;96491.34;5039519;28;20207;-63
2023/07/23 03:14:02;;;;;;;3.97;3.40;;;;;;;16.11;100.00;96488.06;5044661;28;20215;-63
2023/07/23 03:16:28;;;;;;;4.43;4.03;;;;;;;16.11;100.00;96488.88;5058912;28;20702;-62
2023/07/23 03:18:54;;;;;;;4.33;3.30;;;;;;;16.12;100.00;96485.19;5051911;28;20234;-64
2023/07/23 03:21:21;;;;;;;3.30;3.00;;;;;;;16.17;100.00;96479.31;5048156;28;20210;-63
2023/07/23 03:23:49;;;;;;;3.70;3.40;;;;;;;16.19;100.00;96485.31;5036043;28;20207;-63
2023/07/23 03:26:16;;;;;;;3.87;3.20;;;;;;;16.20;100.00;96486.94;5049739;28;20566;-62
2023/07/23 03:28:42;;;;;;;5.43;3.38;;;;;;;16.15;100.00;96492.03;5035959;28;20212;-63
2023/07/23 03:31:08;;;;;;;3.75;3.15;;;;;;;16.12;100.00;96484.38;5037479;28;20261;-62
2023/07/23 03:33:35;;;;;;;3.57;3.23;;;;;;;16.15;100.00;96490.19;5052220;28;20212;-62
2023/07/23 03:36:01;;;;;;;4.27;3.30;;;;;;;16.11;100.00;96488.06;5054910;28;20203;-62
2023/07/23 03:38:28;;;;;;;3.42;3.10;;;;;;;16.06;100.00;96493.09;5048641;28;20584;-62
2023/07/23 03:40:55;;;;;;;3.13;2.93;;;;;;;16.09;100.00;96490.06;5044699;28;20207;-62
2023/07/23 03:43:22;;;;;;;4.00;3.60;;;;;;;16.06;100.00;96490.41;5040322;28;20210;-63
2023/07/23 03:45:48;;;;;;;4.65;2.95;;;;;;;16.03;100.00;96491.63;5038396;28;20207;-61
2023/07/23 03:48:15;;;;;;;3.42;3.13;;;;;;;15.96;100.00;96492.50;5040142;28;20204;-64
2023/07/23 03:50:41;;;;;;;5.27;3.63;;;;;;;15.94;100.00;96487.38;5035826;28;20212;-63
2023/07/23 03:53:08;;;;;;;3.37;3.07;;;;;;;15.94;100.00;96495.38;5035349;28;20196;-63
2023/07/23 03:55:34;;;;;;;3.50;3.10;;;;;;;15.95;100.00;96489.00;5035655;28;20219;-62
2023/07/23 03:58:02;;;;;;;3.60;3.30;;;;;;;15.92;100.00;96492.88;5035252;28;20208;-62
2023/07/23 04:00:28;;;;;;;4.40;3.17;;;;;;;15.90;100.00;96497.56;5042087;28;20203;-62
2023/07/23 04:02:55;;;;;;;3.75;3.25;;;;;;;15.89;100.00;96500.41;5053036;28;20221;-61
2023/07/23 04:05:21;;;;;;;3.50;3.20;;;;;;;15.87;100.00;96497.91;5042021;28;20586;-63
2023/07/23 04:07:48;;;;;;;3.30;3.10;;;;;;;15.88;100.00;96504.06;5041611;28;20222;-63
2023/07/23 04:10:14;;;;;;;3.27;2.90;;;;;;;15.86;100.00;96506.94;5047407;28;20206;-62
2023/07/23 04:12:41;;;;;;;3.33;3.00;;;;;;;15.83;100.00;96501.97;5046628;28;20204;-63
2023/07/23 04:15:09;;;;;;;3.60;3.40;;;;;;;15.84;100.00;96503.59;5041200;28;20206;-62
2023/07/23 04:17:37;;;;;;;3.37;3.00;;;;;;;15.81;100.00;96511.97;5041178;28;20238;-63
2023/07/23 04:20:04;;;;;;;3.07;2.87;;;;;;;15.81;100.00;96511.13;5041343;28;20229;-61
2023/07/23 04:22:30;;;;;;;6.20;3.93;;;;;;;15.83;100.00;96512.63;5040159;28;20203;-62
2023/07/23 04:24:57;;;;;;;7.70;3.23;;;;;;;15.88;100.00;96520.91;5043460;28;20214;-63
2023/07/23 04:27:23;;;;;;;3.30;3.00;;;;;;;15.88;100.00;96520.91;5040051;28;20214;-61
2023/07/23 04:29:50;;;;;;;3.70;3.40;;;;;;;15.90;100.00;96520.75;5035342;28;20203;-63
2023/07/23 04:32:18;;;;;;;4.70;3.38;;;;;;;15.93;100.00;96517.72;5040502;28;20227;-61
2023/07/23 04:34:45;;;;;;;3.33;3.00;;;;;;;15.93;100.00;96518.53;5034749;28;20270;-62
2023/07/23 04:37:13;;;;;;;4.17;3.07;;;;;;;15.96;100.00;96511.19;5049393;28;20238;-63
2023/07/23 04:39:39;;;;;;;3.40;3.10;;;;;;;16.00;100.00;96509.81;5043922;28;20235;-62
2023/07/23 04:42:06;;;;;;;3.83;3.53;;;;;;;16.05;100.00;96504.78;5035904;28;20635;-62
2023/07/23 04:44:33;;;;;;;3.37;3.07;;;;;;;16.08;100.00;96509.75;5039899;28;20286;-62
2023/07/23 04:46:59;;;;;;;4.30;3.50;;;;;;;16.21;100.00;96507.28;5063436;28;20207;-63
2023/07/23 04:49:27;;;;;;;3.77;3.40;;;;;;;16.34;100.00;96507.50;5034449;28;20211;-61
2023/07/23 04:51:53;;;;;;;3.40;3.10;;;;;;;16.57;100.00;96510.97;5036044;28;20208;-62
2023/07/23 04:54:20;;;;;;;4.10;3.57;;;;;;;16.65;100.00;96513.53;5035096;28;20234;-62
2023/07/23 04:56:46;;;;;;;4.03;3.70;;;;;;;16.63;100.00;96512.91;5052147;28;20199;-62
2023/07/23 04:59:12;;;;;;;4.38;3.45;;;;;;;16.70;100.00;96513.81;5043919;28;20227;-62
2023/07/23 05:01:39;;;;;;;3.50;3.30;;;;;;;16.77;100.00;96508.56;5044000;28;20199;-61
2023/07/23 05:04:05;;;;;;;3.92;3.53;;;;;;;16.77;100.00;96514.75;5035192;28;20212;-63
2023/07/23 05:06:33;;;;;;;4.20;3.80;;;;;;;16.88;100.00;96522.28;5034898;28;20215;-62
2023/07/23 05:08:59;;;;;;;3.80;3.50;;;;;;;16.81;100.00;96524.03;5037378;28;20204;-61
2023/07/23 05:11:26;;;;;;;3.73;3.43;;;;;;;16.89;100.00;96523.97;5035742;28;20215;-62
2023/07/23 05:13:52;;;;;;;3.65;3.45;;;;;;;16.98;100.00;96521.16;5043761;28;20204;-62
2023/07/23 05:16:19;;;;;;;4.10;3.70;;;;;;;16.98;100.00;96526.50;5047101;28;20258;-64
2023/07/23 05:18:45;;;;;;;4.85;3.50;;;;;;;17.09;100.00;96528.72;5042295;28;20575;-61
2023/07/23 05:21:12;;;;;;;3.20;3.00;;;;;;;17.21;100.00;96536.09;5046093;28;20200;-63
2023/07/23 05:23:41;;;;;;;3.58;3.28;;;;;;;17.38;100.00;96536.69;5034299;28;20211;-62
2023/07/23 05:26:08;;;;;;;3.70;3.35;;;;;;;17.42;100.00;96533.47;5034245;28;20214;-62
2023/07/23 05:28:36;;;;;;;4.80;3.88;;;;;;;17.50;100.00;96537.84;5033773;28;20533;-62
2023/07/23 05:31:02;;;;;;;3.70;3.40;;;;;;;17.71;100.00;96537.91;5036717;28;20223;-61
2023/07/23 05:33:29;;;;;;;3.63;3.33;;;;;;;17.90;100.00;96531.94;5051603;28;20534;-62
2023/07/23 05:35:55;;;;;;;3.83;3.53;;;;;;;18.08;100.00;96536.00;5035743;28;20254;-62
2023/07/23 05:38:21;;;;;;;3.47;3.17;;;;;;;18.21;100.00;96534.28;5039658;28;20211;-62
2023/07/23 05:40:56;;;;;;;3.58;3.30;;;;;;;18.29;100.00;96541.34;5042647;28;20240;-63
2023/07/23 05:43:22;;;;;;;3.78;3.47;;;;;;;18.55;100.00;96535.41;5038185;28;20206;-63
2023/07/23 05:45:49;;;;;;;3.90;3.60;;;;;;;18.76;100.00;96541.53;5036405;28;20615;-62
2023/07/23 05:48:15;;;;;;;4.32;3.92;;;;;;;18.95;100.00;96544.53;5041290;28;20204;-62
2023/07/23 05:50:42;;;;;;;3.83;3.50;;;;;;;19.11;100.00;96541.50;5046187;28;20204;-62
2023/07/23 05:53:08;;;;;;;3.80;3.42;;;;;;;19.32;100.00;96542.25;5048903;28;20547;-62
2023/07/23 05:55:35;;;;;;;4.00;3.50;;;;;;;19.53;100.00;96541.31;5057780;28;20214;-62
2023/07/23 05:58:02;;;;;;;4.20;3.90;;;;;;;19.63;100.00;96536.41;5058128;28;20559;-63
2023/07/23 06:00:29;;;;;;;4.57;3.63;;;;;;;19.67;100.00;96536.81;5057819;28;20524;-62
2023/07/23 06:02:55;;;;;;;4.15;3.40;;;;;;;19.65;99.44;96538.88;5058594;28;20213;-61
2023/07/23 06:05:22;;;;;;;4.13;3.72;;;;;;;19.65;98.13;96537.03;5057501;28;20230;-61
2023/07/23 06:07:48;;;;;;;3.70;3.40;;;;;;;19.69;98.37;96540.97;5044324;28;20208;-62
2023/07/23 06:10:15;;;;;;;3.78;3.47;;;;;;;19.74;98.28;96540.34;5049342;28;20261;-62
2023/07/23 06:12:43;;;;;;;4.15;3.78;;;;;;;19.83;98.07;96536.47;5052560;28;20289;-62
2023/07/23 06:15:11;;;;;;;3.63;3.33;;;;;;;20.07;98.18;96540.41;5058516;28;20202;-63
2023/07/23 06:17:37;;;;;;;4.00;3.70;;;;;;;20.30;98.10;96533.66;5057877;28;20241;-62
2023/07/23 06:20:05;;;;;;;4.03;3.60;;;;;;;20.52;95.70;96542.31;5057289;28;20238;-63
2023/07/23 06:22:31;;;;;;;4.15;3.72;;;;;;;20.62;93.89;96537.34;5057310;28;20657;-63
2023/07/23 06:24:58;;;;;;;4.18;3.78;;;;;;;20.63;92.36;96539.00;5057528;28;20276;-62
2023/07/23 06:27:24;;;;;;;4.40;4.00;;;;;;;20.64;93.64;96532.63;5057300;28;20269;-61
2023/07/23 06:29:51;;;;;;;3.92;3.53;;;;;;;20.70;92.88;96545.22;5056588;28;20616;-62
2023/07/23 06:32:18;;;;;;;3.60;3.40;;;;;;;20.74;92.31;96546.44;5057990;28;20554;-61
2023/07/23 06:34:45;;;;;;;4.07;3.70;;;;;;;20.74;92.26;96551.81;5057060;28;20211;-63
2023/07/23 06:37:11;;;;;;;4.80;3.65;;;;;;;20.75;92.25;96553.50;5057086;28;20264;-63
2023/07/23 06:39:38;;;;;;;4.03;3.63;;;;;;;20.76;92.17;96559.69;5057052;28;20235;-62
2023/07/23 06:42:04;;;;;;;4.30;3.90;;;;;;;20.82;92.34;96559.69;5056398;28;20670;-62
2023/07/23 06:44:31;;;;;;;3.80;3.55;;;;;;;20.90;91.32;96555.13;5052689;28;20281;-62
2023/07/23 06:46:58;;;;;;;3.85;3.55;;;;;;;20.98;91.30;96560.25;5046250;28;20310;-62
2023/07/23 06:49:28;;;;;;;3.80;3.40;;;;;;;21.04;90.73;96562.13;5048873;28;20227;-63
2023/07/23 06:51:55;;;;;;;4.03;3.65;;;;;;;21.14;88.95;96558.00;5037585;28;20295;-61
2023/07/23 06:54:21;;;;;;;3.80;3.50;;;;;;;21.29;90.14;96555.06;5037158;28;20227;-64
2023/07/23 06:56:47;;;;;;;3.90;3.60;;;;;;;21.30;90.88;96552.13;5036997;28;20223;-63
2023/07/23 06:59:14;;;;;;;4.00;3.60;;;;;;;21.48;89.50;96553.31;5047369;28;20210;-63
2023/07/23 07:01:40;;;;;;;3.30;3.10;;;;;;;21.76;89.61;96543.88;5043039;28;20211;-62
2023/07/23 07:04:07;;;;;;;4.88;3.75;;;;;;;22.03;88.57;96552.66;5045573;28;20295;-62
2023/07/23 07:06:35;;;;;;;4.00;3.70;;;;;;;22.33;84.35;96552.88;5037798;28;20204;-62
2023/07/23 07:09:01;;;;;;;3.70;3.35;;;;;;;22.67;83.62;96554.28;5036865;28;20208;-62
2023/07/23 07:11:27;;;;;;;3.78;3.30;;;;;;;22.92;81.97;96548.88;5041533;28;20222;-62
2023/07/23 07:13:54;;;;;;;4.82;3.38;;;;;;;23.21;81.52;96548.13;5056249;28;20199;-62
2023/07/23 07:16:21;;;;;;;3.90;3.22;;;;;;;23.46;76.58;96558.88;5049727;28;20247;-62
2023/07/23 07:18:47;;;;;;;3.25;2.95;;;;;;;23.70;72.25;96560.69;5050636;28;20203;-64
2023/07/23 07:21:13;;;;;;;3.15;2.95;;;;;;;23.90;69.17;96560.41;5049883;28;20227;-62
2023/07/23 07:23:41;;;;;;;2.42;2.33;;;;;;;23.92;60.44;96559.13;5035958;28;20640;-64
2023/07/23 07:26:08;;;;;;;2.70;2.50;;;;;;;24.07;61.92;96556.84;5036481;28;20203;-65
2023/07/23 07:28:34;;;;;;;3.03;2.83;;;;;;;24.17;61.36;96556.31;5036027;28;20208;-63
2023/07/23 07:31:01;;;;;;;3.05;2.80;;;;;;;24.37;64.25;96556.03;5036289;28;20199;-62
2023/07/23 07:33:28;;;;;;;2.97;2.63;;;;;;;24.48;60.99;96557.94;5042847;28;20271;-62
2023/07/23 07:35:55;;;;;;;2.92;2.72;;;;;;;24.53;59.86;96556.19;5038080;28;20219;-62
2023/07/23 07:38:38;;;;;;;2.75;2.65;;;;;;;24.39;58.87;96552.03;5054258;28;20199;-63
2023/07/23 07:41:07;;;;;;;3.00;2.80;;;;;;;24.65;58.65;96559.72;5062042;28;20676;-62
2023/07/23 07:43:34;;;;;;;2.40;2.20;;;;;;;24.68;59.38;96553.03;5065493;28;20199;-62
2023/07/23 07:46:02;;;;;;;2.60;2.45;;;;;;;24.99;58.65;96558.13;5059985;28;20208;-63
2023/07/23 07:48:29;;;;;;;2.47;2.38;;;;;;;25.18;59.90;96548.00;5049039;28;20293;-63
2023/07/23 07:51:00;;;;;;;2.60;2.33;;;;;;;25.13;55.49;96547.88;5035904;28;20424;-63
2023/07/23 07:53:26;;;;;;;2.45;2.35;;;;;;;25.13;55.84;96547.88;5035610;28;20290;-63
2023/07/23 07:55:53;;;;;;;2.35;2.25;;;;;;;25.25;55.96;96548.72;5036342;28;20227;-63
2023/07/23 07:58:24;;;;;;;2.70;2.50;;;;;;;25.46;58.24;96550.78;5035431;28;20207;-62
2023/07/23 08:00:52;;;;;;;2.10;2.00;;;;;;;25.45;56.27;96538.31;5035807;28;20274;-63
2023/07/23 08:03:19;;;;;;;2.70;2.50;;;;;;;25.07;53.04;96541.53;5043596;28;20518;-63
2023/07/23 08:05:46;;;;;;;5.68;2.55;;;;;;;25.12;55.36;96540.81;5055320;28;20202;-63
2023/07/23 08:08:13;;;;;;;2.55;2.35;;;;;;;25.05;57.56;96537.41;5044081;28;20266;-63
2023/07/23 08:10:40;;;;;;;2.85;2.65;;;;;;;24.89;54.81;96548.94;5039871;28;20685;-63
2023/07/23 08:13:09;;;;;;;2.30;2.10;;;;;;;24.70;57.54;96545.50;5045589;28;20219;-63
2023/07/23 08:15:37;;;;;;;2.63;2.42;;;;;;;24.70;59.23;96540.09;5047783;28;20195;-62
2023/07/23 08:18:03;;;;;;;2.28;2.17;;;;;;;24.59;57.27;96539.00;5044189;28;20196;-63
2023/07/23 08:20:32;;;;;;;2.30;2.20;;;;;;;24.53;55.73;96534.56;5062806;28;20227;-62
2023/07/23 08:22:59;;;;;;;2.28;2.17;;;;;;;24.66;58.29;96534.31;5040727;28;20208;-65
2023/07/23 08:25:26;;;;;;;3.33;2.30;;;;;;;24.87;56.89;96534.84;5050600;28;20269;-66
2023/07/23 08:27:58;;;;;;;2.53;2.33;;;;;;;25.24;58.57;96533.53;5036791;28;20219;-64
2023/07/23 08:30:25;;;;;;;2.25;2.15;;;;;;;25.55;54.35;96525.00;5036085;28;20214;-68
2023/07/23 08:32:54;;;;;;;2.67;2.47;;;;;;;25.70;52.94;96525.31;5040969;28;20547;-63
2023/07/23 08:35:22;;;;;;;2.60;2.40;;;;;;;25.81;54.31;96533.63;5049226;28;20203;-65
2023/07/23 08:37:48;;;;;;;2.28;2.17;;;;;;;25.89;54.70;96527.84;5043269;28;20214;-65
2023/07/23 08:40:16;;;;;;;2.40;2.30;;;;;;;25.69;53.63;96520.97;5035314;28;20235;-64
2023/07/23 08:42:57;;;;;;;2.63;2.40;;;;;;;25.48;55.86;96537.81;5034702;28;20532;-64
2023/07/23 08:45:42;;;;;;;2.50;2.30;;;;;;;24.97;52.98;96548.59;5040479;28;20203;-59
2023/07/23 08:48:16;;;;;;;2.58;2.38;;;;;;;24.74;55.72;96552.09;5040466;28;20196;-62
2023/07/23 08:50:44;;;;;;;1.95;1.83;;;;;;;24.91;55.73;96546.81;5034893;28;20581;-64
2023/07/23 08:53:12;;;;;;;3.03;2.58;;;;;;;25.03;57.93;96551.19;5034494;28;20208;-64
2023/07/23 08:55:43;;;;;;;2.47;2.30;;;;;;;25.09;55.66;96554.81;5036747;28;20219;-62
2023/07/23 08:58:13;;;;;;;2.08;1.98;;;;;;;25.19;54.57;96547.75;5045148;28;20207;-62
2023/07/23 09:00:40;;;;;;;2.28;2.15;;;;;;;25.36;54.66;96545.16;5058945;28;20230;-64
2023/07/23 09:03:07;;;;;;;2.80;2.58;;;;;;;25.73;56.74;96541.09;5045366;28;20238;-65
2023/07/23 09:05:35;;;;;;;2.30;2.10;;;;;;;25.94;55.56;96536.88;5045748;28;20261;-62
2023/07/23 09:08:03;;;;;;;2.65;2.45;;;;;;;26.01;53.00;96536.72;5035632;28;20212;-66
2023/07/23 09:10:29;;;;;;;2.47;2.38;;;;;;;25.82;51.74;96524.47;5038030;28;20226;-65
2023/07/23 09:12:56;;;;;;;2.50;2.30;;;;;;;25.69;52.54;96531.78;5043730;28;20208;-65
2023/07/23 09:15:23;;;;;;;2.53;2.33;;;;;;;25.63;52.97;96529.22;5045099;28;20200;-66
2023/07/23 09:17:49;;;;;;;2.85;2.65;;;;;;;25.72;54.02;96535.91;5049453;28;20251;-64
2023/07/23 09:20:17;;;;;;;3.55;2.47;;;;;;;25.62;52.09;96528.41;5055751;28;20234;-64
2023/07/23 09:22:45;;;;;;;2.63;2.42;;;;;;;25.67;54.81;96525.81;5038089;28;20207;-67
2023/07/23 09:25:12;;;;;;;2.88;2.67;;;;;;;25.54;55.12;96528.75;5036345;28;20212;-64
2023/07/23 09:27:39;;;;;;;2.80;2.40;;;;;;;25.48;56.40;96521.56;5035900;28;20204;-62
2023/07/23 09:30:06;;;;;;;3.65;2.38;;;;;;;25.43;56.90;96532.31;5051360;28;20203;-65
2023/07/23 09:32:33;;;;;;;3.03;2.60;;;;;;;25.53;58.28;96524.44;5044504;28;20203;-64
2023/07/23 09:35:00;;;;;;;2.85;2.70;;;;;;;25.62;56.55;96525.69;5057916;28;20209;-65
2023/07/23 09:37:27;;;;;;;3.00;2.80;;;;;;;25.55;55.33;96526.88;5038960;28;20218;-65
2023/07/23 09:39:57;;;;;;;2.55;2.35;;;;;;;25.70;56.43;96519.06;5042692;28;20219;-63
2023/07/23 09:42:23;;;;;;;3.10;2.60;;;;;;;25.73;55.37;96516.72;5053817;28;20279;-64
2023/07/23 09:44:50;;;;;;;2.97;2.78;;;;;;;26.00;55.09;96524.25;5054593;28;20260;-64
2023/07/23 09:47:16;;;;;;;2.63;2.50;;;;;;;26.34;56.07;96515.16;5035519;28;20300;-64
2023/07/23 09:49:44;;;;;;;3.03;2.72;;;;;;;26.50;55.65;96513.53;5044747;28;20234;-64
2023/07/23 09:52:10;;;;;;;3.55;2.83;;;;;;;26.52;54.57;96512.19;5041650;28;20268;-63
2023/07/23 09:54:37;;;;;;;4.03;2.67;;;;;;;26.53;52.25;96513.84;5043742;28;20218;-64
2023/07/23 09:57:07;;;;;;;3.00;2.80;;;;;;;26.68;53.50;96515.97;5052683;28;20203;-62
2023/07/23 09:59:33;;;;;;;3.00;2.80;;;;;;;26.78;50.98;96523.47;5054758;28;20219;-62
2023/07/23 10:02:00;;;;;;;2.70;2.50;;;;;;;26.83;50.33;96515.41;5052217;28;20280;-63
2023/07/23 10:04:27;;;;;;;2.58;2.38;;;;;;;26.61;49.69;96515.31;5055555;28;20199;-63
2023/07/23 10:06:56;;;;;;;3.03;2.80;;;;;;;26.67;50.84;96515.16;5043222;28;20219;-64
2023/07/23 10:09:23;;;;;;;3.00;2.80;;;;;;;26.82;52.41;96505.63;5054087;28;20203;-64
2023/07/23 10:11:50;;;;;;;2.75;2.55;;;;;;;26.93;51.27;96518.28;5052867;28;20688;-65
2023/07/23 10:14:18;;;;;;;2.70;2.53;;;;;;;27.01;52.50;96515.16;5055779;28;20236;-63
2023/07/23 10:16:46;;;;;;;2.95;2.75;;;;;;;27.01;50.86;96504.28;5052174;28;20235;-64
2023/07/23 10:19:12;;;;;;;2.83;2.63;;;;;;;27.27;52.30;96508.19;5051495;28;20211;-65
2023/07/23 10:21:39;;;;;;;3.15;2.83;;;;;;;27.43;51.85;96502.69;5052846;28;20241;-63
2023/07/23 10:24:06;;;;;;;2.97;2.70;;;;;;;27.61;53.17;96505.13;5053305;28;20207;-63
2023/07/23 10:26:41;;;;;;;3.13;2.92;;;;;;;27.83;50.47;96512.44;5053184;28;20358;-62
2023/07/23 10:29:11;;;;;;;3.17;2.88;;;;;;;27.88;50.07;96496.19;5050239;28;20215;-62
2023/07/23 10:31:39;;;;;;;2.78;2.58;;;;;;;28.10;51.28;96505.13;5053867;28;20215;-60
2023/07/23 10:34:39;;;;;;;3.05;2.85;;;;;;;28.04;49.49;96495.25;5052974;28;20207;-61
2023/07/23 10:37:12;;;;;;;3.35;2.75;;;;;;;28.20;51.44;96486.19;5053364;28;20207;-61
2023/07/23 10:39:39;;;;;;;2.78;2.58;;;;;;;28.39;52.14;96492.09;5055116;28;20292;-61
2023/07/23 10:42:06;;;;;;;3.30;3.10;;;;;;;28.32;50.19;96475.16;5053701;28;20315;-62
2023/07/23 10:44:32;;;;;;;3.47;2.80;;;;;;;28.56;51.01;96488.16;5041301;28;20220;-62
2023/07/23 10:47:02;;;;;;;3.78;3.35;;;;;;;28.64;48.28;96476.78;5037128;28;20302;-64
2023/07/23 10:49:30;;;;;;;3.25;2.90;;;;;;;28.84;49.68;96476.13;5036601;28;20301;-70
2023/07/23 10:52:12;;;;;;;3.22;3.03;;;;;;;28.87;50.86;96480.25;5060678;28;20199;-64
2023/07/23 10:54:38;;;;;;;4.88;2.97;;;;;;;28.81;46.13;96468.50;5044189;28;20650;-64
2023/07/23 10:57:06;;;;;;;3.90;3.20;;;;;;;28.51;47.62;96458.19;5038253;28;20204;-63
2023/07/23 10:59:32;;;;;;;3.78;3.50;;;;;;;28.71;47.34;96451.28;5037785;28;20212;-63
2023/07/23 11:02:06;;;;;;;3.22;3.03;;;;;;;28.54;49.80;96451.41;5037283;28;20234;-63
2023/07/23 11:04:37;;;;;;;4.60;4.20;;;;;;;28.55;49.01;96445.72;5075464;28;20191;-66
2023/07/23 11:07:06;;;;;;;4.03;3.65;;;;;;;28.79;49.73;96446.19;5055099;28;20215;-65
2023/07/23 11:09:34;;;;;;;4.43;4.03;;;;;;;28.97;47.68;96447.66;5038519;28;20203;-65
2023/07/23 11:12:03;;;;;;;4.25;3.83;;;;;;;28.81;46.86;96432.28;5041280;28;20199;-64
2023/07/23 11:14:31;;;;;;;4.65;4.25;;;;;;;28.91;48.26;96426.94;5046382;28;20331;-63
2023/07/23 11:16:58;;;;;;;4.47;4.07;;;;;;;28.92;49.40;96428.53;5048522;28;20246;-63
2023/07/23 11:19:28;;;;;;;4.30;4.00;;;;;;;28.89;45.75;96434.53;5038485;28;20212;-67
2023/07/23 11:21:56;;;;;;;4.85;4.43;;;;;;;28.85;47.43;96430.69;5046933;28;20231;-64
2023/07/23 11:24:23;;;;;;;5.40;4.95;;;;;;;28.97;46.29;96421.25;5036953;28;20204;-62
2023/07/23 11:26:50;;;;;;;5.40;4.90;;;;;;;28.87;48.49;96420.38;5036864;28;20218;-64
2023/07/23 11:29:18;;;;;;;6.03;5.18;;;;;;;28.99;48.30;96423.69;5037732;28;20660;-64